Time;durP1;ratioP1;P1;durP2;ratioP2;P2;SDS_P1;SDS_P2;PMS_P1;PMS_P2;Temp;Humidity;BMP_temperature;BMP_pressure;BME280_temperature;BME280_humidity;BME280_pressure;Samples;Min_cycle;Max_cycle;Signal;HPM_P1;HPM_P2
2021/10/19 00:00:05;;;;;;;75.07;27.50;;;;;;;5.81;79.62;100435.98;1760237;79;21338;-62
2021/10/19 00:02:35;;;;;;;66.30;25.88;;;;;;;5.79;79.67;100431.70;1767541;79;20955;-62
2021/10/19 00:05:05;;;;;;;66.33;24.45;;;;;;;5.80;79.70;100438.61;1759301;81;21053;-62
2021/10/19 00:07:31;;;;;;;57.43;23.02;;;;;;;5.79;79.72;100434.29;1761400;79;21036;-62
2021/10/19 00:09:58;;;;;;;54.73;21.97;;;;;;;5.78;79.74;100440.36;1763407;79;21006;-62
2021/10/19 00:12:25;;;;;;;59.10;24.15;;;;;;;5.77;79.77;100436.05;1766544;80;20949;-62
2021/10/19 00:14:52;;;;;;;55.45;22.55;;;;;;;5.76;79.85;100436.48;1770393;79;21531;-62
2021/10/19 00:17:19;;;;;;;50.40;21.07;;;;;;;5.75;79.85;100430.91;1765952;79;20901;-62
2021/10/19 00:19:45;;;;;;;38.75;17.02;;;;;;;5.74;79.84;100420.55;1761969;80;20946;-62
2021/10/19 00:22:12;;;;;;;43.17;16.60;;;;;;;5.72;79.83;100417.15;1765660;79;21485;-62
2021/10/19 00:24:39;;;;;;;37.80;15.65;;;;;;;5.69;79.84;100410.73;1764084;80;21498;-62
2021/10/19 00:27:05;;;;;;;28.55;13.15;;;;;;;5.67;79.87;100411.18;1759487;81;21111;-61
2021/10/19 00:29:32;;;;;;;24.50;12.37;;;;;;;5.67;79.90;100411.18;1764405;79;21096;-62
2021/10/19 00:32:00;;;;;;;19.90;11.28;;;;;;;5.66;79.97;100410.75;1764615;79;21068;-62
2021/10/19 00:34:27;;;;;;;23.85;12.13;;;;;;;5.67;79.99;100409.88;1765027;79;21601;-61
2021/10/19 00:36:54;;;;;;;21.73;10.58;;;;;;;5.70;80.03;100413.72;1759053;79;27157;-62
2021/10/19 00:39:21;;;;;;;22.50;12.50;;;;;;;5.74;79.98;100414.06;1781989;79;21525;-62
2021/10/19 00:41:47;;;;;;;21.97;11.22;;;;;;;5.78;80.00;100406.67;1783185;79;20982;-61
2021/10/19 00:44:14;;;;;;;17.55;10.55;;;;;;;5.82;79.98;100415.69;1779659;79;21010;-62
2021/10/19 00:46:42;;;;;;;17.02;9.55;;;;;;;5.85;79.94;100408.27;1779029;79;21039;-62
2021/10/19 00:49:09;;;;;;;17.67;10.45;;;;;;;5.87;79.99;100409.11;1780915;79;21623;-62
2021/10/19 00:51:35;;;;;;;18.17;10.38;;;;;;;5.88;79.99;100408.24;1782369;79;21574;-62
2021/10/19 00:54:02;;;;;;;20.85;10.38;;;;;;;5.88;80.02;100408.24;1764286;80;20914;-62
2021/10/19 00:56:29;;;;;;;19.73;11.65;;;;;;;5.86;80.07;100408.70;1758391;79;21571;-62
2021/10/19 00:58:56;;;;;;;26.15;11.83;;;;;;;5.87;80.16;100398.73;1771611;80;21005;-62
2021/10/19 01:01:25;;;;;;;25.05;13.18;;;;;;;5.88;80.18;100393.98;1771331;80;20927;-62
2021/10/19 01:03:51;;;;;;;24.80;13.25;;;;;;;5.88;80.20;100395.28;1767713;79;22377;-62
2021/10/19 01:06:18;;;;;;;27.30;13.17;;;;;;;5.88;80.15;100398.30;1759813;80;21532;-62
2021/10/19 01:08:46;;;;;;;20.70;12.15;;;;;;;5.87;80.16;100396.15;1761698;79;21052;-62
2021/10/19 01:11:13;;;;;;;23.47;12.20;;;;;;;5.87;80.22;100393.55;1764892;79;21018;-62
2021/10/19 01:13:39;;;;;;;22.20;12.80;;;;;;;5.84;80.27;100395.75;1773410;79;20985;-62
2021/10/19 01:16:12;;;;;;;20.48;12.50;;;;;;;5.83;80.34;100394.50;1763473;80;21547;-62
2021/10/19 01:18:39;;;;;;;21.77;12.98;;;;;;;5.83;80.40;100384.98;1756022;81;21017;-62
2021/10/19 01:21:08;;;;;;;23.65;12.82;;;;;;;5.84;80.42;100384.54;1775494;79;22037;-62
2021/10/19 01:23:35;;;;;;;22.52;12.28;;;;;;;5.83;80.47;100385.43;1767839;79;21028;-62
2021/10/19 01:26:08;;;;;;;19.42;10.63;;;;;;;5.82;80.51;100388.47;1775361;79;21061;-62
2021/10/19 01:28:38;;;;;;;17.77;11.10;;;;;;;5.86;80.54;100397.04;1769204;79;21074;-62
2021/10/19 01:31:06;;;;;;;18.15;10.82;;;;;;;5.92;80.55;100391.74;1771925;79;21016;-62
2021/10/19 01:33:33;;;;;;;21.50;9.88;;;;;;;5.98;80.56;100395.55;1767213;79;21523;-62
2021/10/19 01:36:00;;;;;;;16.50;9.95;;;;;;;6.03;80.56;100387.70;1785027;79;20986;-62
2021/10/19 01:38:30;;;;;;;18.23;10.95;;;;;;;6.07;80.52;100387.20;1744848;79;21525;-62
2021/10/19 01:40:57;;;;;;;18.92;10.75;;;;;;;6.07;80.55;100380.72;1775798;79;21134;-62
2021/10/19 01:43:26;;;;;;;22.32;10.23;;;;;;;6.06;80.59;100374.69;1745952;81;21028;-62
2021/10/19 01:46:00;;;;;;;15.78;10.28;;;;;;;6.05;80.61;100373.83;1749426;79;21004;-62
2021/10/19 01:48:29;;;;;;;17.15;9.58;;;;;;;6.05;80.67;100367.35;1770682;80;21500;-62
2021/10/19 01:50:56;;;;;;;20.75;9.25;;;;;;;6.03;80.72;100366.52;1778361;79;21005;-61
2021/10/19 01:53:24;;;;;;;12.68;8.80;;;;;;;6.03;80.79;100365.22;1761993;79;21539;-62
2021/10/19 01:55:50;;;;;;;;;;;;;;;6.02;80.71;100364.81;1719924;82;22205;-62
2021/10/19 01:58:23;;;;;;;17.37;9.63;;;;;;;5.99;80.76;100353.21;1756435;80;20147;-62
2021/10/19 02:00:46;;;;;;;16.75;8.35;;;;;;;5.97;80.78;100353.67;1754698;80;22479;-62
2021/10/19 02:03:13;;;;;;;13.77;7.50;;;;;;;5.93;80.85;100349.41;1770157;80;21043;-62
2021/10/19 02:05:40;;;;;;;17.98;8.48;;;;;;;5.90;80.88;100346.84;1742463;80;21474;-62
2021/10/19 02:08:06;;;;;;;14.50;7.00;;;;;;;5.89;80.87;100338.67;1745753;81;21075;-62
2021/10/19 02:10:35;;;;;;;15.35;7.92;;;;;;;5.88;80.84;100343.45;1772510;80;20966;-62
2021/10/19 02:13:05;;;;;;;14.85;7.62;;;;;;;5.85;80.91;100338.29;1749713;81;20985;-62
2021/10/19 02:15:32;;;;;;;13.08;7.17;;;;;;;5.84;80.95;100331.41;1732399;81;20957;-62
2021/10/19 02:18:01;;;;;;;8.83;6.33;;;;;;;5.81;80.98;100326.28;1723508;81;21148;-62
2021/10/19 02:20:28;;;;;;;11.45;7.10;;;;;;;5.79;81.08;100318.97;1730250;82;21022;-62
2021/10/19 02:22:55;;;;;;;9.83;6.75;;;;;;;5.80;81.13;100322.00;1755667;80;21544;-62
2021/10/19 02:25:22;;;;;;;9.65;6.67;;;;;;;5.79;81.18;100318.97;1749308;79;21524;-62
2021/10/19 02:27:49;;;;;;;11.45;7.90;;;;;;;5.79;81.21;100317.67;1782016;79;21523;-62
2021/10/19 02:30:17;;;;;;;10.53;6.53;;;;;;;5.80;81.26;100318.11;1783068;79;22112;-62
2021/10/19 02:32:44;;;;;;;11.88;7.12;;;;;;;5.81;81.29;100315.92;1771519;81;20973;-62
2021/10/19 02:35:16;;;;;;;11.28;7.03;;;;;;;5.81;81.34;100319.36;1772875;81;20938;-61
2021/10/19 02:37:45;;;;;;;12.07;7.05;;;;;;;5.83;81.44;100319.34;1766232;79;21022;-62
2021/10/19 02:40:15;;;;;;;10.23;6.75;;;;;;;5.85;81.40;100317.56;1774779;79;21000;-61
2021/10/19 02:42:43;;;;;;;14.25;7.25;;;;;;;5.86;81.46;100319.29;1758801;81;21939;-61
2021/10/19 02:45:12;;;;;;;11.50;7.10;;;;;;;5.87;81.49;100315.80;1737551;81;20954;-62
2021/10/19 02:47:39;;;;;;;8.63;6.10;;;;;;;5.88;81.48;100320.12;1771545;79;21604;-61
2021/10/19 02:50:08;;;;;;;9.05;6.12;;;;;;;5.90;81.53;100318.34;1762533;79;21021;-62
2021/10/19 02:52:35;;;;;;;16.10;6.90;;;;;;;5.88;81.51;100317.53;1730184;81;21016;-62
2021/10/19 02:55:03;;;;;;;9.75;6.12;;;;;;;5.87;81.54;100320.14;1736640;81;22360;-62
2021/10/19 02:57:29;;;;;;;10.78;6.33;;;;;;;5.84;81.56;100323.64;1759274;80;21021;-62
2021/10/19 02:59:57;;;;;;;8.00;5.83;;;;;;;5.82;81.68;100328.86;1738208;82;21100;-62
2021/10/19 03:02:23;;;;;;;8.10;5.53;;;;;;;5.81;81.73;100331.47;1770785;80;20961;-62
2021/10/19 03:04:50;;;;;;;10.58;6.40;;;;;;;5.82;81.82;100327.98;1727756;81;21522;-62
2021/10/19 03:07:17;;;;;;;9.55;5.90;;;;;;;5.81;81.83;100334.06;1745868;81;22026;-62
2021/10/19 03:09:43;;;;;;;9.65;6.30;;;;;;;5.81;81.86;100331.47;1741845;81;21503;-62
2021/10/19 03:12:10;;;;;;;8.98;5.85;;;;;;;5.81;81.88;100336.66;1764019;81;20992;-61
2021/10/19 03:14:36;;;;;;;10.98;5.90;;;;;;;5.82;81.97;100326.69;1736654;81;20981;-62
2021/10/19 03:17:04;;;;;;;10.20;5.90;;;;;;;5.83;82.01;100331.01;1768470;80;20942;-62
2021/10/19 03:19:30;;;;;;;9.58;6.22;;;;;;;5.84;82.03;100328.82;1741237;81;21114;-62
2021/10/19 03:21:57;;;;;;;6.90;5.33;;;;;;;5.84;82.08;100322.34;1748090;80;20997;-62
2021/10/19 03:24:23;;;;;;;8.30;5.22;;;;;;;5.85;82.12;100327.92;1759238;80;21572;-62
2021/10/19 03:26:50;;;;;;;7.75;5.37;;;;;;;5.86;82.17;100319.29;1759458;80;21500;-62
2021/10/19 03:29:18;;;;;;;10.80;5.67;;;;;;;5.88;82.21;100325.31;1762251;80;21045;-62
2021/10/19 03:31:44;;;;;;;12.13;6.78;;;;;;;5.88;82.26;100321.83;1739092;81;22319;-62
2021/10/19 03:34:11;;;;;;;7.80;5.37;;;;;;;5.88;82.22;100312.34;1747921;79;21546;-62
2021/10/19 03:36:38;;;;;;;9.80;5.70;;;;;;;5.89;82.23;100318.37;1757274;80;21488;-62
2021/10/19 03:39:04;;;;;;;11.22;5.28;;;;;;;5.87;82.27;100312.36;1747356;81;21120;-62
2021/10/19 03:41:32;;;;;;;10.20;5.30;;;;;;;5.88;82.34;100315.36;1764670;80;20991;-61
2021/10/19 03:43:59;;;;;;;7.65;5.05;;;;;;;5.86;82.35;100315.84;1756166;80;21168;-62
2021/10/19 03:46:25;;;;;;;12.05;5.90;;;;;;;5.84;82.40;100319.30;1741087;81;20965;-62
2021/10/19 03:48:52;;;;;;;8.93;5.42;;;;;;;5.83;82.39;100308.98;1765188;79;20902;-62
2021/10/19 03:51:18;;;;;;;8.33;5.20;;;;;;;5.81;82.53;100305.55;1760495;79;20993;-62
2021/10/19 03:53:45;;;;;;;8.43;5.25;;;;;;;5.79;82.53;100307.31;1762080;79;21052;-62
2021/10/19 03:56:11;;;;;;;7.67;4.55;;;;;;;5.77;82.63;100301.30;1778042;79;22344;-62
2021/10/19 03:58:38;;;;;;;10.10;5.00;;;;;;;5.75;82.75;100300.49;1771742;79;20878;-62
2021/10/19 04:01:05;;;;;;;7.58;4.53;;;;;;;5.73;82.77;100293.17;1767787;79;21028;-62
2021/10/19 04:03:31;;;;;;;7.58;4.83;;;;;;;5.72;82.88;100295.37;1737453;81;20979;-61
2021/10/19 04:05:58;;;;;;;8.63;5.28;;;;;;;5.71;82.85;100288.45;1762249;80;20934;-61
2021/10/19 04:08:24;;;;;;;6.50;4.37;;;;;;;5.72;82.92;100292.78;1765353;81;22281;-62
2021/10/19 04:10:51;;;;;;;8.10;4.80;;;;;;;5.71;82.99;100288.45;1763647;79;21490;-63
2021/10/19 04:13:17;;;;;;;7.00;4.53;;;;;;;5.72;83.03;100290.19;1758462;80;22345;-61
2021/10/19 04:15:44;;;;;;;6.75;4.97;;;;;;;5.75;83.06;100287.53;1774043;79;21136;-62
2021/10/19 04:18:11;;;;;;;13.22;5.70;;;;;;;5.74;83.09;100290.98;1769507;79;20946;-62
2021/10/19 04:20:37;;;;;;;10.97;5.60;;;;;;;5.76;83.17;100291.83;1775986;79;21449;-62
2021/10/19 04:23:04;;;;;;;9.68;5.58;;;;;;;5.78;83.18;100292.66;1811359;78;21044;-62
2021/10/19 04:25:31;;;;;;;8.18;4.83;;;;;;;5.78;83.31;100290.91;1763362;79;20949;-62
2021/10/19 04:27:57;;;;;;;6.55;4.75;;;;;;;5.81;83.31;100297.78;1792010;79;20918;-62
2021/10/19 04:30:24;;;;;;;8.78;5.08;;;;;;;5.83;83.36;100294.28;1765267;79;21008;-62
2021/10/19 04:32:50;;;;;;;8.73;4.87;;;;;;;5.84;83.45;100287.36;1759980;81;21063;-63
2021/10/19 04:35:17;;;;;;;9.30;6.00;;;;;;;5.86;83.45;100284.30;1771181;80;21127;-62
2021/10/19 04:37:44;;;;;;;8.10;4.62;;;;;;;5.86;83.48;100277.82;1751925;81;20939;-62
2021/10/19 04:40:12;;;;;;;7.78;5.35;;;;;;;5.89;83.62;100279.05;1800744;79;20979;-62
2021/10/19 04:42:39;;;;;;;11.73;5.60;;;;;;;5.90;83.57;100282.05;1747999;81;21008;-62
2021/10/19 04:45:08;;;;;;;9.23;5.62;;;;;;;5.92;83.60;100274.26;1773128;79;21117;-62
2021/10/19 04:47:35;;;;;;;11.28;6.03;;;;;;;5.94;83.68;100275.97;1772953;79;21024;-62
2021/10/19 04:50:01;;;;;;;12.53;6.83;;;;;;;5.93;83.69;100274.24;1744152;81;20990;-62
2021/10/19 04:52:28;;;;;;;17.80;7.37;;;;;;;5.93;83.71;100271.66;1752136;81;20938;-62
2021/10/19 04:54:55;;;;;;;12.13;7.25;;;;;;;5.93;83.78;100270.36;1749203;81;21565;-62
2021/10/19 04:57:22;;;;;;;11.00;6.58;;;;;;;5.93;83.87;100273.36;1771882;81;21048;-62
2021/10/19 04:59:49;;;;;;;9.57;5.77;;;;;;;5.91;83.90;100268.23;1762732;79;20953;-62
2021/10/19 05:02:15;;;;;;;9.18;6.55;;;;;;;5.92;83.98;100263.89;1772548;79;20987;-62
2021/10/19 05:04:42;;;;;;;10.85;6.40;;;;;;;5.92;84.14;100263.44;1778122;79;20899;-62
2021/10/19 05:07:08;;;;;;;11.05;6.58;;;;;;;5.91;84.31;100266.94;1778463;79;21022;-62
2021/10/19 05:09:35;;;;;;;8.75;6.78;;;;;;;5.91;84.16;100268.23;1786439;79;21475;-62
2021/10/19 05:12:02;;;;;;;13.30;7.28;;;;;;;5.92;84.23;100269.92;1753523;81;21798;-62
2021/10/19 05:14:29;;;;;;;14.67;7.43;;;;;;;5.93;84.30;100269.06;1780481;79;20935;-62
2021/10/19 05:16:56;;;;;;;14.83;7.45;;;;;;;5.95;84.34;100267.30;1791261;79;20981;-62
2021/10/19 05:19:22;;;;;;;10.45;6.62;;;;;;;5.98;84.37;100264.64;1786662;79;20926;-62
2021/10/19 05:21:49;;;;;;;10.43;6.83;;;;;;;5.97;84.41;100259.06;1760846;81;21051;-62
2021/10/19 05:24:16;;;;;;;8.40;5.70;;;;;;;5.98;84.50;100269.83;1788985;79;20934;-62
2021/10/19 05:26:45;;;;;;;10.90;6.47;;;;;;;6.00;84.51;100275.84;1777935;79;21536;-61
2021/10/19 05:29:11;;;;;;;10.93;6.65;;;;;;;5.96;84.53;100262.52;1765381;81;21041;-62
2021/10/19 05:31:38;;;;;;;12.88;6.70;;;;;;;6.05;84.55;100274.47;1742803;81;20997;-62
2021/10/19 05:34:04;;;;;;;11.43;7.28;;;;;;;6.08;84.58;100267.05;1776378;79;21411;-62
2021/10/19 05:36:31;;;;;;;13.08;7.00;;;;;;;6.08;84.56;100265.33;1776879;79;20950;-62
2021/10/19 05:38:57;;;;;;;11.68;7.17;;;;;;;6.10;84.63;100263.54;1783565;79;20891;-62
2021/10/19 05:41:24;;;;;;;11.50;7.55;;;;;;;6.11;84.67;100260.08;1773991;79;20962;-62
2021/10/19 05:43:51;;;;;;;11.95;7.53;;;;;;;6.13;84.77;100258.73;1777828;79;21055;-62
2021/10/19 05:46:17;;;;;;;9.95;7.62;;;;;;;6.16;84.84;100261.27;1786546;79;21965;-62
2021/10/19 05:48:44;;;;;;;12.18;8.08;;;;;;;6.16;84.85;100256.08;1773295;79;21042;-62
2021/10/19 05:51:10;;;;;;;13.93;7.75;;;;;;;6.17;84.91;100253.92;1762342;81;21100;-62
2021/10/19 05:53:38;;;;;;;14.15;8.90;;;;;;;6.18;84.98;100255.61;1783840;79;21013;-62
2021/10/19 05:56:05;;;;;;;11.73;7.62;;;;;;;6.19;85.02;100252.12;1775888;79;25891;-62
2021/10/19 05:58:31;;;;;;;9.78;7.05;;;;;;;6.22;85.15;100250.34;1769969;79;21119;-62
2021/10/19 06:00:58;;;;;;;10.43;7.53;;;;;;;6.22;85.14;100247.75;1765779;79;21016;-62
2021/10/19 06:03:25;;;;;;;23.98;15.68;;;;;;;6.25;85.26;100239.05;1780960;79;20963;-62
2021/10/19 06:05:51;;;;;;;12.30;8.48;;;;;;;6.28;85.32;100238.98;1775008;79;21689;-62
2021/10/19 06:08:19;;;;;;;18.32;15.10;;;;;;;6.31;85.40;100241.51;1755512;81;21568;-62
2021/10/19 06:10:45;;;;;;;18.17;13.80;;;;;;;6.35;85.45;100237.95;1754891;81;21619;-62
2021/10/19 06:13:13;;;;;;;20.43;15.15;;;;;;;6.40;85.51;100236.11;1786266;79;20923;-62
2021/10/19 06:15:41;;;;;;;17.35;12.65;;;;;;;6.41;85.48;100236.96;1782459;79;21016;-62
2021/10/19 06:18:07;;;;;;;19.92;13.22;;;;;;;6.42;85.56;100236.94;1775438;79;20966;-62
2021/10/19 06:20:34;;;;;;;19.33;13.33;;;;;;;6.44;85.58;100235.17;1764500;79;21016;-62
2021/10/19 06:23:01;;;;;;;74.73;57.77;;;;;;;6.46;85.66;100239.86;1765909;79;22224;-62
2021/10/19 06:25:28;;;;;;;48.78;43.10;;;;;;;6.48;85.68;100247.17;1789025;79;21588;-62
2021/10/19 06:27:54;;;;;;;37.30;27.20;;;;;;;6.52;85.77;100241.92;1784044;79;21254;-62
2021/10/19 06:30:21;;;;;;;43.10;33.13;;;;;;;6.57;85.79;100240.08;1771386;79;21077;-62
2021/10/19 06:32:48;;;;;;;28.02;21.97;;;;;;;6.60;85.83;100241.30;1781083;79;21080;-62
2021/10/19 06:35:15;;;;;;;21.20;17.00;;;;;;;6.64;85.86;100241.66;1771060;79;21095;-62
2021/10/19 06:37:42;;;;;;;18.40;14.43;;;;;;;6.69;85.91;100239.79;1771066;79;20989;-62
2021/10/19 06:40:11;;;;;;;16.75;11.73;;;;;;;6.73;85.95;100233.66;1772662;79;21698;-62
2021/10/19 06:42:38;;;;;;;14.50;11.33;;;;;;;6.76;85.96;100233.58;1762961;79;20977;-62
2021/10/19 06:45:06;;;;;;;15.83;11.38;;;;;;;6.81;86.00;100226.55;1761995;81;21013;-62
2021/10/19 06:47:33;;;;;;;14.75;11.35;;;;;;;6.86;86.07;100219.50;1754993;80;21129;-62
2021/10/19 06:50:01;;;;;;;14.00;11.15;;;;;;;6.92;86.15;100202.92;1771311;79;21056;-62
2021/10/19 06:52:29;;;;;;;15.93;11.20;;;;;;;7.00;86.23;100215.70;1754220;79;20944;-62
2021/10/19 06:54:57;;;;;;;17.60;11.78;;;;;;;7.06;86.24;100211.22;1760189;81;21013;-62
2021/10/19 06:57:24;;;;;;;16.40;13.65;;;;;;;7.11;86.30;100213.27;1735505;81;21369;-62
2021/10/19 06:59:51;;;;;;;16.67;13.75;;;;;;;7.18;86.38;100211.35;1750576;81;21132;-62
2021/10/19 07:02:17;;;;;;;23.97;20.83;;;;;;;7.26;86.35;100215.91;1740314;81;21520;-62
2021/10/19 07:04:45;;;;;;;23.55;19.10;;;;;;;7.32;86.33;100207.95;1734809;81;21635;-62
2021/10/19 07:07:11;;;;;;;;;;;;;;;7.34;86.37;100211.38;1742958;81;20985;-62
2021/10/19 07:09:38;;;;;;;21.90;17.07;;;;;;;7.37;86.42;100205.25;1749424;81;20704;-62
2021/10/19 07:12:05;;;;;;;32.80;22.87;;;;;;;7.39;86.46;100206.91;1730957;81;21909;-62
2021/10/19 07:14:32;;;;;;;21.97;15.80;;;;;;;7.43;86.51;100204.23;1736628;82;26674;-62
2021/10/19 07:16:59;;;;;;;27.62;19.67;;;;;;;7.45;86.50;100205.02;1732592;82;21064;-63
2021/10/19 07:19:25;;;;;;;25.95;19.45;;;;;;;7.47;86.55;100208.44;1757265;81;20978;-62
2021/10/19 07:21:52;;;;;;;15.20;12.17;;;;;;;7.51;86.61;100202.28;1733764;81;20926;-62
2021/10/19 07:24:19;;;;;;;14.00;11.97;;;;;;;7.55;86.68;100190.89;1727491;81;22291;-62
2021/10/19 07:26:45;;;;;;;11.95;10.25;;;;;;;7.58;86.77;100185.61;1760461;81;21036;-62
2021/10/19 07:29:12;;;;;;;14.80;12.03;;;;;;;7.63;86.79;100179.84;1741765;81;21016;-62
2021/10/19 07:31:39;;;;;;;12.53;9.83;;;;;;;7.71;86.87;100170.09;1760715;79;21622;-62
2021/10/19 07:34:05;;;;;;;15.10;11.18;;;;;;;7.80;86.94;100167.22;1754836;81;21649;-62
2021/10/19 07:36:32;;;;;;;13.97;11.70;;;;;;;7.87;86.88;100168.33;1759566;79;21529;-62
2021/10/19 07:38:59;;;;;;;22.32;20.02;;;;;;;7.89;86.82;100169.99;1757306;79;21648;-62
2021/10/19 07:41:26;;;;;;;13.10;9.95;;;;;;;7.94;86.86;100169.88;1773639;79;21053;-62
2021/10/19 07:43:53;;;;;;;14.10;11.57;;;;;;;7.96;86.85;100176.73;1770446;80;21050;-62
2021/10/19 07:46:20;;;;;;;9.60;7.87;;;;;;;7.97;86.86;100186.68;1769121;80;21080;-63
2021/10/19 07:48:47;;;;;;;10.93;7.90;;;;;;;8.01;86.89;100197.38;1761115;80;21485;-62
2021/10/19 07:51:30;;;;;;;14.15;7.92;;;;;;;8.09;87.02;100199.31;1854615;76;22707;-61
2021/10/19 07:53:57;;;;;;;11.23;8.67;;;;;;;8.12;87.10;100196.62;1823684;76;21102;-69
2021/10/19 07:56:24;;;;;;;12.27;7.83;;;;;;;8.20;87.11;100195.95;1814944;76;21190;-70
2021/10/19 07:58:50;;;;;;;10.23;7.33;;;;;;;8.25;87.06;100187.56;1831773;76;20982;-69
2021/10/19 08:01:18;;;;;;;9.53;7.67;;;;;;;8.33;87.11;100195.59;1796839;79;20965;-68
2021/10/19 08:03:44;;;;;;;;;;;;;;;8.40;87.12;100184.12;1792735;79;21008;-69
2021/10/19 08:06:11;;;;;;;15.00;13.50;;;;;;;8.42;87.14;100175.82;1801294;79;20154;-68
2021/10/19 08:08:38;;;;;;;14.03;11.43;;;;;;;8.47;87.19;100162.22;1787862;78;22277;-68
2021/10/19 08:11:05;;;;;;;18.75;14.33;;;;;;;8.53;87.22;100175.03;1784853;79;20997;-68
2021/10/19 08:13:33;;;;;;;13.40;9.78;;;;;;;8.58;87.27;100173.14;1792465;79;20995;-69
2021/10/19 08:16:01;;;;;;;12.37;8.53;;;;;;;8.60;87.20;100166.56;1798910;79;20929;-69
2021/10/19 08:18:28;;;;;;;11.73;9.15;;;;;;;8.60;87.22;100163.55;1799944;79;21032;-69
2021/10/19 08:20:55;;;;;;;11.47;8.00;;;;;;;8.64;87.33;100165.13;1794866;79;21158;-70
2021/10/19 08:23:21;;;;;;;12.70;7.72;;;;;;;8.71;87.44;100169.25;1790827;79;20973;-70
2021/10/19 08:25:48;;;;;;;12.47;9.63;;;;;;;8.83;87.51;100169.75;1780180;79;21048;-69
2021/10/19 08:28:23;;;;;;;10.78;8.50;;;;;;;8.92;87.45;100164.23;1775991;79;21042;-70
2021/10/19 08:30:53;;;;;;;10.35;9.18;;;;;;;9.00;87.49;100164.83;1794109;79;20906;-70
2021/10/19 08:33:20;;;;;;;13.90;9.50;;;;;;;9.10;87.54;100176.65;1785969;79;21084;-70
2021/10/19 08:35:46;;;;;;;11.33;8.85;;;;;;;9.21;87.47;100180.63;1776032;79;20898;-70
2021/10/19 08:38:13;;;;;;;12.57;9.70;;;;;;;9.31;87.45;100184.62;1789383;79;21377;-69
2021/10/19 08:40:42;;;;;;;11.22;9.95;;;;;;;9.41;87.41;100178.20;1787041;79;21491;-69
2021/10/19 08:43:10;;;;;;;14.43;9.63;;;;;;;9.47;87.37;100172.77;1773785;79;20984;-69
2021/10/19 08:45:36;;;;;;;;;;;;;;;9.53;87.19;100162.11;1785594;79;21815;-70
2021/10/19 08:48:08;;;;;;;10.50;8.47;;;;;;;9.59;87.26;100164.49;1778939;78;20468;-69
2021/10/19 08:50:34;;;;;;;13.72;10.30;;;;;;;9.62;87.23;100159.16;1786090;79;21615;-70
2021/10/19 08:53:00;;;;;;;13.83;10.07;;;;;;;9.61;87.14;100162.69;1787113;79;20954;-70
2021/10/19 08:55:27;;;;;;;10.70;8.53;;;;;;;9.63;87.17;100175.22;1782608;79;21044;-69
2021/10/19 08:57:58;;;;;;;13.15;9.45;;;;;;;9.71;87.27;100170.16;1785186;79;22020;-69
2021/10/19 09:00:27;;;;;;;8.98;8.08;;;;;;;9.78;87.29;100172.96;1769147;79;21560;-71
2021/10/19 09:02:54;;;;;;;11.73;9.03;;;;;;;9.91;87.46;100167.66;1777952;79;21054;-69
2021/10/19 09:05:27;;;;;;;11.60;10.37;;;;;;;10.03;87.31;100151.56;1793082;79;20950;-71
2021/10/19 09:08:08;;;;;;;11.95;9.40;;;;;;;10.26;87.61;100147.22;1789522;79;21058;-70
2021/10/19 09:10:40;;;;;;;9.60;8.28;;;;;;;10.52;87.43;100132.69;1763901;79;22056;-70
2021/10/19 09:13:16;;;;;;;11.60;9.08;;;;;;;10.72;87.22;100127.95;1756667;79;20927;-70
2021/10/19 09:15:46;;;;;;;8.98;7.95;;;;;;;10.92;87.19;100132.37;1779362;78;21059;-69
2021/10/19 09:18:20;;;;;;;9.60;7.72;;;;;;;11.08;87.07;100129.09;1782129;79;21637;-69
2021/10/19 09:20:50;;;;;;;9.60;8.18;;;;;;;11.11;86.67;100121.13;1764785;81;21056;-69
2021/10/19 09:23:21;;;;;;;12.23;8.20;;;;;;;10.98;85.99;100116.44;1772688;81;21032;-70
2021/10/19 09:25:52;;;;;;;10.35;8.18;;;;;;;10.83;85.97;100117.06;1767197;79;20938;-70
2021/10/19 09:28:39;;;;;;;12.00;8.65;;;;;;;10.71;86.08;100120.20;1777021;79;21408;-71
2021/10/19 09:31:07;;;;;;;12.28;8.80;;;;;;;10.62;86.25;100117.98;1781117;79;21012;-69
2021/10/19 09:33:34;;;;;;;10.82;9.15;;;;;;;10.55;86.47;100116.52;1773132;80;21018;-69
2021/10/19 09:36:02;;;;;;;10.38;8.58;;;;;;;10.51;86.48;100114.03;1764209;81;21119;-69
2021/10/19 09:38:29;;;;;;;12.25;8.85;;;;;;;10.47;86.41;100119.00;1782215;79;21020;-70
2021/10/19 09:40:58;;;;;;;10.45;8.58;;;;;;;10.44;86.57;100133.45;1787333;79;21029;-70
2021/10/19 09:43:29;;;;;;;13.22;11.83;;;;;;;10.42;86.52;100141.83;1798595;78;20993;-70
2021/10/19 09:45:56;;;;;;;11.57;10.05;;;;;;;10.34;86.39;100146.50;1782202;79;21016;-69
2021/10/19 09:48:31;;;;;;;13.13;9.85;;;;;;;10.28;86.52;100149.35;1764376;79;21120;-69
2021/10/19 09:51:00;;;;;;;30.20;24.07;;;;;;;10.21;86.49;100152.61;1749074;81;20974;-69
2021/10/19 09:53:29;;;;;;;14.75;11.85;;;;;;;10.11;86.42;100150.41;1730138;81;21032;-69
2021/10/19 09:55:57;;;;;;;14.53;10.68;;;;;;;10.03;86.58;100141.13;1756349;81;21254;-69
2021/10/19 09:58:25;;;;;;;19.00;17.00;;;;;;;10.00;86.72;100136.03;1759073;81;21579;-69
2021/10/19 10:00:52;;;;;;;18.60;16.52;;;;;;;9.99;86.78;100138.69;1768065;80;21991;-69
2021/10/19 10:03:19;;;;;;;27.58;23.87;;;;;;;9.97;86.82;100125.72;1759902;81;20994;-70
2021/10/19 10:05:47;;;;;;;21.60;17.85;;;;;;;9.94;86.73;100123.23;1747794;81;21012;-69
2021/10/19 10:08:20;;;;;;;16.85;12.70;;;;;;;9.96;86.84;100118.78;1752445;81;21828;-69
2021/10/19 10:10:53;;;;;;;16.65;12.93;;;;;;;10.04;87.01;100115.42;1739896;81;21496;-69
2021/10/19 10:13:21;;;;;;;15.53;11.65;;;;;;;10.14;86.95;100098.97;1738055;82;22321;-70
2021/10/19 10:18:34;;;;;;;12.00;10.65;;;;;;;10.25;86.70;100088.08;1693441;82;21008;-70
2021/10/19 10:21:21;;;;;;;12.63;10.70;;;;;;;10.26;86.61;100081.97;1696645;82;21114;-70
2021/10/19 10:24:02;;;;;;;13.93;10.72;;;;;;;10.25;86.58;100076.34;1701913;84;20957;-70
2021/10/19 10:26:33;;;;;;;17.75;11.73;;;;;;;10.24;86.65;100065.52;1713467;82;21233;-71
2021/10/19 10:29:12;;;;;;;19.07;10.90;;;;;;;10.27;86.66;100054.98;1691059;83;21004;-70
2021/10/19 10:31:49;;;;;;;12.18;10.88;;;;;;;10.29;86.68;100041.42;1710308;82;21024;-71
2021/10/19 10:34:17;;;;;;;15.60;11.00;;;;;;;10.38;86.91;100042.34;1689513;83;22245;-70
2021/10/19 10:36:47;;;;;;;15.00;10.48;;;;;;;10.49;86.81;100037.52;1712278;82;27034;-70
2021/10/19 10:39:14;;;;;;;15.15;12.20;;;;;;;10.64;87.01;100044.31;1715968;82;21000;-70
2021/10/19 10:41:47;;;;;;;22.87;12.28;;;;;;;10.74;86.73;100041.72;1718235;82;20918;-70
2021/10/19 10:44:22;;;;;;;13.88;10.28;;;;;;;10.80;86.58;100031.00;1678319;83;21548;-69
2021/10/19 10:46:44;;;;;;;14.13;10.40;;;;;;;10.86;86.57;100026.81;1709692;82;21021;-70
2021/10/19 10:49:13;;;;;;;12.18;10.80;;;;;;;10.90;86.51;100028.39;1710410;82;21049;-70
2021/10/19 10:51:43;;;;;;;12.20;9.88;;;;;;;10.96;86.47;100017.66;1716946;82;21457;-70
2021/10/19 10:54:15;;;;;;;14.78;10.75;;;;;;;11.03;86.44;100015.61;1713999;83;20973;-70
2021/10/19 10:56:54;;;;;;;11.38;9.98;;;;;;;11.04;86.34;100011.27;1681123;83;21005;-70
2021/10/19 10:59:31;;;;;;;13.35;9.93;;;;;;;11.07;86.51;100004.59;1706356;82;22593;-70
2021/10/19 11:02:09;;;;;;;;;;;;;;;11.05;86.37;99997.27;1711971;82;21031;-70
2021/10/19 11:04:50;;;;;;;13.50;10.68;;;;;;;11.07;86.44;99998.06;1705891;83;21553;-70
2021/10/19 11:07:34;;;;;;;14.30;10.72;;;;;;;11.14;86.71;100007.30;1704519;82;21083;-69
2021/10/19 11:10:14;;;;;;;12.35;10.85;;;;;;;11.31;86.86;100002.15;1713017;82;20957;-69
2021/10/19 11:12:44;;;;;;;12.30;10.45;;;;;;;11.45;86.73;99994.14;1690129;83;20981;-70
2021/10/19 11:15:17;;;;;;;14.20;11.25;;;;;;;11.59;86.72;99994.34;1692746;83;21007;-69
2021/10/19 11:17:49;;;;;;;12.28;10.98;;;;;;;11.83;86.88;99976.17;1675055;83;22350;-69
2021/10/19 11:20:18;;;;;;;15.95;10.72;;;;;;;12.12;87.02;99972.61;1675088;85;20964;-70
2021/10/19 11:22:45;;;;;;;15.10;11.18;;;;;;;12.39;86.90;99966.94;1697458;83;21586;-69
2021/10/19 11:25:13;;;;;;;14.78;11.33;;;;;;;12.57;86.52;99964.66;1682342;83;21025;-70
2021/10/19 11:27:42;;;;;;;11.50;10.08;;;;;;;12.66;86.23;99960.28;1694133;83;21043;-70
2021/10/19 11:30:11;;;;;;;18.37;10.20;;;;;;;12.69;85.84;99957.50;1652916;83;21089;-71